createdAt,value
2018-03-26T08:00:13.630Z,393.75
2018-03-26T08:01:13.573Z,489.38
2018-03-26T08:02:13.536Z,545.63
2018-03-26T08:03:13.521Z,523.13
2018-03-26T08:04:13.495Z,517.50
2018-03-26T08:05:13.473Z,478.13
2018-03-26T08:06:13.435Z,472.50
2018-03-26T08:07:13.412Z,506.25
2018-03-26T08:08:13.380Z,540.00
2018-03-26T08:09:13.355Z,579.38
2018-03-26T08:10:13.343Z,551.25
2018-03-26T08:11:13.313Z,540.00
2018-03-26T08:12:13.282Z,517.50
2018-03-26T08:13:13.284Z,579.38
2018-03-26T08:14:13.232Z,607.50
2018-03-26T08:15:13.201Z,601.88
2018-03-26T08:16:13.178Z,573.75
2018-03-26T08:17:13.206Z,506.25
2018-03-26T08:18:13.157Z,568.13
2018-03-26T08:19:13.105Z,556.88
2018-03-26T08:20:13.132Z,523.13
2018-03-26T08:21:13.057Z,573.75
2018-03-26T08:22:13.042Z,551.25
2018-03-26T08:23:13.006Z,500.63
2018-03-26T08:24:13.002Z,590.63
2018-03-26T08:25:12.958Z,601.88
2018-03-26T08:26:12.946Z,579.38
2018-03-26T08:27:12.910Z,590.63
2018-03-26T08:28:12.903Z,613.13
2018-03-26T08:29:12.861Z,618.75
2018-03-26T08:30:12.838Z,590.63
2018-03-26T08:31:12.813Z,607.50
2018-03-26T08:32:12.787Z,596.25
2018-03-26T08:33:12.763Z,590.63
2018-03-26T08:34:12.744Z,624.38
2018-03-26T08:35:12.720Z,652.50
2018-03-26T08:36:12.693Z,691.88
2018-03-26T08:37:12.673Z,686.25
2018-03-26T08:38:12.647Z,663.75
2018-03-26T08:39:12.636Z,663.75
2018-03-26T08:40:12.600Z,658.13
2018-03-26T08:41:12.586Z,675.00
2018-03-26T08:42:12.581Z,652.50
2018-03-26T08:43:12.532Z,663.75
2018-03-26T08:44:12.508Z,646.88
2018-03-26T08:45:12.481Z,596.25
2018-03-26T08:46:12.463Z,601.88
2018-03-26T08:47:12.440Z,618.75
2018-03-26T08:48:12.418Z,613.13
2018-03-26T08:49:12.392Z,607.50
2018-03-26T08:50:12.445Z,635.63
2018-03-26T08:51:12.355Z,663.75
2018-03-26T08:52:12.326Z,658.13
2018-03-26T08:53:12.304Z,630.00
2018-03-26T08:54:12.280Z,573.75
2018-03-26T08:55:12.259Z,585.00
2018-03-26T08:56:12.233Z,540.00
2018-03-26T08:57:12.214Z,523.13
2018-03-26T08:58:12.202Z,590.63
2018-03-26T08:59:12.178Z,630.00
2018-03-26T09:00:12.147Z,641.25
2018-03-26T09:01:12.124Z,646.88
2018-03-26T09:02:12.102Z,720.00
2018-03-26T09:03:12.079Z,731.25
2018-03-26T09:04:12.060Z,697.50
2018-03-26T09:05:12.055Z,663.75
2018-03-26T09:06:12.074Z,703.13
2018-03-26T09:07:11.988Z,776.25
2018-03-26T09:08:11.968Z,669.38
2018-03-26T09:09:11.958Z,646.88
2018-03-26T09:10:11.926Z,742.50
2018-03-26T09:11:11.903Z,714.38
2018-03-26T09:12:11.880Z,641.25
2018-03-26T09:13:11.912Z,596.25
2018-03-26T09:14:11.839Z,556.88
2018-03-26T09:15:11.818Z,551.25
2018-03-26T09:16:11.804Z,601.88
2018-03-26T09:17:11.771Z,540.00
2018-03-26T09:18:11.762Z,618.75
2018-03-26T09:19:11.732Z,540.00
2018-03-26T09:20:11.708Z,517.50
2018-03-26T09:21:11.688Z,585.00
2018-03-26T09:22:11.682Z,618.75
2018-03-26T09:23:11.675Z,635.63
2018-03-26T09:24:11.628Z,573.75
2018-03-26T09:25:11.603Z,545.63
2018-03-26T09:26:11.581Z,579.38
2018-03-26T09:27:11.565Z,573.75
2018-03-26T09:28:11.543Z,579.38
2018-03-26T09:29:11.530Z,579.38
2018-03-26T09:30:11.521Z,590.63
2018-03-26T09:31:11.480Z,590.63
2018-03-26T09:32:11.459Z,579.38
2018-03-26T09:33:11.452Z,573.75
2018-03-26T09:34:11.419Z,551.25
2018-03-26T09:35:11.401Z,573.75
2018-03-26T09:36:11.378Z,579.38
2018-03-26T09:37:11.358Z,585.00
2018-03-26T09:38:11.347Z,585.00
2018-03-26T09:39:11.322Z,601.88
2018-03-26T09:40:11.302Z,613.13
2018-03-26T09:41:11.311Z,613.13
2018-03-26T09:42:11.264Z,613.13
2018-03-26T09:43:11.257Z,618.75
2018-03-26T09:44:11.228Z,630.00
2018-03-26T09:45:11.212Z,596.25
2018-03-26T09:46:11.194Z,624.38
2018-03-26T09:47:11.172Z,635.63
2018-03-26T09:48:11.158Z,635.63
2018-03-26T09:49:11.143Z,624.38
2018-03-26T09:50:11.129Z,635.63
2018-03-26T09:51:11.103Z,635.63
2018-03-26T09:52:11.081Z,635.63
2018-03-26T09:53:11.069Z,635.63
2018-03-26T09:54:11.049Z,630.00
2018-03-26T09:55:11.033Z,630.00
2018-03-26T09:56:11.014Z,641.25
2018-03-26T09:57:11.010Z,646.88
2018-03-26T09:58:10.982Z,658.13
2018-03-26T09:59:10.974Z,658.13
2018-03-26T10:00:10.958Z,675.00
2018-03-26T10:01:10.935Z,675.00
2018-03-26T10:02:10.919Z,697.50
2018-03-26T10:03:10.908Z,697.50
2018-03-26T10:04:10.879Z,720.00
2018-03-26T10:05:10.875Z,731.25
2018-03-26T10:06:10.846Z,742.50
2018-03-26T10:07:10.829Z,765.00
2018-03-26T10:08:10.825Z,793.13
2018-03-26T10:09:10.797Z,832.50
2018-03-26T10:10:10.780Z,871.88
2018-03-26T10:11:10.762Z,888.75
2018-03-26T10:12:10.751Z,939.38
2018-03-26T10:13:10.736Z,939.38
2018-03-26T10:14:10.747Z,939.38
2018-03-26T10:15:10.710Z,961.88
2018-03-26T10:16:10.683Z,1012.50
2018-03-26T10:17:10.685Z,1029.38
2018-03-26T10:18:10.675Z,1051.88
2018-03-26T10:19:10.634Z,1023.75
2018-03-26T10:20:10.626Z,1018.13
2018-03-26T10:21:10.601Z,1051.88
2018-03-26T10:22:10.594Z,1074.38
2018-03-26T10:23:10.584Z,1096.88
2018-03-26T10:24:10.553Z,1096.88
2018-03-26T10:25:10.533Z,1080.00
2018-03-26T10:26:10.520Z,1091.25
2018-03-26T10:27:10.510Z,1119.38
2018-03-26T10:28:10.499Z,1125.00
2018-03-26T10:29:10.471Z,1130.63
2018-03-26T10:30:10.462Z,1147.50
2018-03-26T10:31:10.459Z,1158.75
2018-03-26T10:32:10.435Z,1164.38
2018-03-26T10:33:10.409Z,1215.00
2018-03-26T10:34:10.404Z,1175.63
2018-03-26T10:35:10.398Z,1113.75
2018-03-26T10:36:10.372Z,1203.75
2018-03-26T10:37:10.346Z,1248.75
2018-03-26T10:38:10.344Z,1215.00
2018-03-26T10:39:10.320Z,1248.75
2018-03-26T10:40:10.317Z,1186.88
2018-03-26T10:41:10.298Z,1203.75
2018-03-26T10:42:10.271Z,1130.63
2018-03-26T10:43:10.266Z,1220.63
2018-03-26T10:44:10.251Z,1276.88
2018-03-26T10:45:10.238Z,1260.00
2018-03-26T10:46:10.215Z,1237.50
2018-03-26T10:47:10.203Z,1237.50
2018-03-26T10:48:10.193Z,1237.50
2018-03-26T10:49:10.160Z,1282.50
2018-03-26T10:50:10.157Z,1316.25
2018-03-26T10:51:10.197Z,1321.88
2018-03-26T10:52:10.129Z,1361.25
2018-03-26T10:53:10.105Z,1366.88
2018-03-26T10:54:10.103Z,1316.25
2018-03-26T10:55:10.072Z,1282.50
2018-03-26T10:56:10.068Z,1361.25
2018-03-26T10:57:10.052Z,1440.00
2018-03-26T10:58:10.026Z,1462.50
2018-03-26T10:59:10.011Z,1428.75
2018-03-26T11:00:10.021Z,1451.25
2018-03-26T11:01:09.984Z,1440.00
2018-03-26T11:02:09.970Z,1440.00
2018-03-26T11:03:09.954Z,1417.50
2018-03-26T11:04:09.946Z,1468.13
2018-03-26T11:05:09.924Z,1597.50
2018-03-26T11:06:09.913Z,1732.50
2018-03-26T11:07:09.901Z,1935.00
2018-03-26T11:08:09.899Z,1906.88
2018-03-26T11:09:09.891Z,1906.88
2018-03-26T11:10:09.854Z,2002.50
2018-03-26T11:11:09.840Z,2115.00
2018-03-26T11:12:09.872Z,2244.38
2018-03-26T11:13:09.835Z,2536.88
2018-03-26T11:14:09.798Z,2655.00
2018-03-26T11:15:09.791Z,2874.38
2018-03-26T11:16:09.772Z,2846.25
2018-03-26T11:17:09.759Z,2896.88
2018-03-26T11:18:09.744Z,2964.38
2018-03-26T11:19:09.739Z,2941.88
2018-03-26T11:20:09.717Z,2700.00
2018-03-26T11:21:09.713Z,2745.00
2018-03-26T11:22:09.693Z,2745.00
2018-03-26T11:23:09.685Z,2581.88
2018-03-26T11:24:09.662Z,2767.50
2018-03-26T11:25:09.648Z,2801.25
2018-03-26T11:26:09.645Z,2728.13
2018-03-26T11:27:09.623Z,2615.63
2018-03-26T11:28:09.627Z,2413.13
2018-03-26T11:29:09.614Z,2497.50
2018-03-26T11:30:09.627Z,2469.38
2018-03-26T11:31:09.572Z,2604.38
2018-03-26T11:32:09.575Z,2475.00
2018-03-26T11:33:09.577Z,2491.88
2018-03-26T11:34:09.549Z,2176.88
2018-03-26T11:35:09.539Z,1805.63
2018-03-26T11:36:09.543Z,1541.25
2018-03-26T11:37:09.494Z,1361.25
2018-03-26T11:38:09.479Z,1271.25
2018-03-26T11:39:09.467Z,1203.75
2018-03-26T11:40:09.465Z,1192.50
2018-03-26T11:41:09.440Z,1226.25
2018-03-26T11:42:09.429Z,1226.25
2018-03-26T11:43:09.417Z,1254.38
2018-03-26T11:44:09.406Z,1260.00
2018-03-26T11:45:09.402Z,1248.75
2018-03-26T11:46:09.385Z,1220.63
2018-03-26T11:47:09.376Z,1237.50
2018-03-26T11:48:09.353Z,1231.88
2018-03-26T11:49:09.377Z,1198.13
2018-03-26T11:50:09.328Z,1220.63
2018-03-26T11:51:09.315Z,1198.13
2018-03-26T11:52:09.314Z,1203.75
2018-03-26T11:53:09.310Z,1175.63
2018-03-26T11:54:09.279Z,1147.50
2018-03-26T11:55:09.300Z,1175.63
2018-03-26T11:56:09.251Z,1198.13
2018-03-26T11:57:09.240Z,1231.88
2018-03-26T11:58:09.228Z,1231.88
2018-03-26T11:59:09.241Z,1243.13
2018-03-26T12:00:09.220Z,1254.38
2018-03-26T12:01:09.189Z,1310.63
2018-03-26T12:02:09.199Z,1305.00
2018-03-26T12:03:09.164Z,1282.50
2018-03-26T12:04:09.158Z,1305.00
2018-03-26T12:05:09.140Z,1530.00
2018-03-26T12:06:09.139Z,1248.75
2018-03-26T12:07:09.125Z,2126.25
2018-03-26T12:08:09.103Z,2688.75
2018-03-26T12:09:09.092Z,2604.38
2018-03-26T12:10:09.079Z,2463.75
2018-03-26T12:11:09.068Z,2356.88
2018-03-26T12:12:09.063Z,2120.63
2018-03-26T12:13:09.093Z,2148.75
2018-03-26T12:14:09.039Z,2250.00
2018-03-26T12:15:09.015Z,2278.13
2018-03-26T12:16:09.003Z,2345.63
2018-03-26T12:17:08.990Z,2373.75
2018-03-26T12:18:08.987Z,2480.63
2018-03-26T12:19:08.976Z,2407.50
2018-03-26T12:20:08.962Z,2244.38
2018-03-26T12:21:08.940Z,1968.75
2018-03-26T12:22:08.932Z,1946.25
2018-03-26T12:23:08.927Z,1063.13
2018-03-26T12:24:08.906Z,1327.50
2018-03-26T12:25:08.912Z,2064.38
2018-03-26T12:26:08.904Z,1895.63
2018-03-26T12:27:08.871Z,1068.75
2018-03-26T12:28:08.856Z,2919.38
2018-03-26T12:29:08.859Z,1153.13
2018-03-26T12:30:08.839Z,1749.38
2018-03-26T12:31:08.834Z,1833.75
2018-03-26T12:32:08.817Z,3138.75
2018-03-26T12:33:08.797Z,3121.88
2018-03-26T12:34:08.789Z,3279.38
2018-03-26T12:35:08.777Z,3324.38
2018-03-26T12:36:08.760Z,3358.13
2018-03-26T12:37:08.749Z,2992.50
2018-03-26T12:38:08.737Z,3588.75
2018-03-26T12:39:08.725Z,3358.13
2018-03-26T12:40:08.724Z,3386.25
2018-03-26T12:41:08.758Z,3352.50
2018-03-26T12:42:08.700Z,2998.13
2018-03-26T12:43:08.682Z,2823.75
2018-03-26T12:44:08.682Z,3211.88
2018-03-26T12:45:08.663Z,3166.88
2018-03-26T12:46:08.652Z,3279.38
2018-03-26T12:47:08.634Z,3425.63
2018-03-26T12:48:08.635Z,3420.00
2018-03-26T12:49:08.613Z,3577.50
2018-03-26T12:50:08.595Z,3346.88
2018-03-26T12:51:08.586Z,3538.13
2018-03-26T12:52:08.583Z,3650.63
2018-03-26T12:53:08.567Z,3611.25
2018-03-26T12:54:08.552Z,3341.25
2018-03-26T12:55:08.544Z,3622.50
2018-03-26T12:56:08.534Z,3600.00
2018-03-26T12:57:08.533Z,3493.13
2018-03-26T12:58:08.510Z,3346.88
2018-03-26T12:59:08.513Z,3172.50
2018-03-26T13:00:08.512Z,3318.75
2018-03-26T13:01:08.492Z,3543.75
2018-03-26T13:02:08.469Z,3453.75
2018-03-26T13:03:08.471Z,3470.63
2018-03-26T13:04:08.451Z,3431.25
2018-03-26T13:05:08.442Z,3420.00
2018-03-26T13:06:08.429Z,3504.38
2018-03-26T13:07:08.420Z,3493.13
2018-03-26T13:08:08.418Z,3718.13
2018-03-26T13:09:08.410Z,3802.50
2018-03-26T13:10:08.388Z,1203.75
2018-03-26T13:11:08.389Z,3453.75
2018-03-26T13:12:08.366Z,3560.63
2018-03-26T13:13:08.367Z,3425.63
2018-03-26T13:14:08.346Z,3465.00
2018-03-26T13:15:08.337Z,3217.50
2018-03-26T13:16:08.324Z,3256.88
2018-03-26T13:17:08.322Z,2452.50
2018-03-26T13:18:08.305Z,2705.63
2018-03-26T13:19:08.305Z,1012.50
2018-03-26T13:20:08.283Z,1254.38
2018-03-26T13:21:08.272Z,1586.25
2018-03-26T13:22:08.266Z,2919.38
2018-03-26T13:23:08.262Z,2975.63
2018-03-26T13:24:08.243Z,3060.00
2018-03-26T13:25:08.228Z,2913.75
2018-03-26T13:26:08.234Z,2880.00
2018-03-26T13:27:08.216Z,3048.75
2018-03-26T13:28:08.232Z,2829.38
2018-03-26T13:29:08.195Z,3082.50
2018-03-26T13:30:08.169Z,3133.13
2018-03-26T13:31:08.157Z,3273.75
2018-03-26T13:32:08.149Z,3470.63
2018-03-26T13:33:08.135Z,3566.25
2018-03-26T13:34:08.129Z,3656.25
2018-03-26T13:35:08.111Z,1113.75
2018-03-26T13:36:08.100Z,1113.75
2018-03-26T13:37:08.100Z,1603.13
2018-03-26T13:38:08.076Z,3043.13
2018-03-26T13:39:08.069Z,2632.50
2018-03-26T13:40:08.053Z,3465.00
2018-03-26T13:41:08.039Z,3757.50
2018-03-26T13:42:08.037Z,3712.50
2018-03-26T13:43:08.012Z,1383.75
2018-03-26T13:44:08.015Z,3886.88
2018-03-26T13:45:07.992Z,3830.63
2018-03-26T13:46:07.985Z,3555.00
2018-03-26T13:47:07.967Z,3228.75
2018-03-26T13:48:07.965Z,3526.88
2018-03-26T13:49:07.944Z,1710.00
2018-03-26T13:50:07.969Z,3600.00
2018-03-26T13:51:07.930Z,3133.13
2018-03-26T13:52:07.908Z,2806.88
2018-03-26T13:53:07.896Z,2137.50
2018-03-26T13:54:07.915Z,1186.88
2018-03-26T13:55:07.882Z,2418.75
2018-03-26T13:56:07.859Z,3296.25
2018-03-26T13:57:07.848Z,4185.00
2018-03-26T13:58:07.833Z,1631.25
2018-03-26T13:59:07.830Z,2227.50
2018-03-26T14:00:07.806Z,3633.75
2018-03-26T14:01:07.807Z,3825.00
2018-03-26T14:02:07.799Z,3948.75
2018-03-26T14:03:07.781Z,4106.25
2018-03-26T14:04:07.755Z,3926.25
2018-03-26T14:05:07.755Z,3830.63
2018-03-26T14:06:07.739Z,2936.25
2018-03-26T14:07:07.722Z,2441.25
2018-03-26T14:08:07.724Z,3538.13
2018-03-26T14:09:07.695Z,2812.50
2018-03-26T14:10:07.702Z,4179.38
2018-03-26T14:11:07.675Z,4140.00
2018-03-26T14:12:07.696Z,3661.88
2018-03-26T14:13:07.663Z,2908.13
2018-03-26T14:14:07.648Z,3667.50
2018-03-26T14:15:07.634Z,2885.63
2018-03-26T14:16:07.632Z,3206.25
2018-03-26T14:17:07.635Z,3538.13
2018-03-26T14:18:07.601Z,3780.00
2018-03-26T14:19:07.597Z,3920.63
2018-03-26T14:20:07.582Z,3673.13
2018-03-26T14:21:07.570Z,3600.00
2018-03-26T14:22:07.559Z,3701.25
2018-03-26T14:23:07.550Z,3757.50
2018-03-26T14:24:07.558Z,2283.75
2018-03-26T14:25:07.543Z,3465.00
2018-03-26T14:26:07.521Z,3099.38
2018-03-26T14:27:07.543Z,3656.25
2018-03-26T14:28:07.502Z,3723.75
2018-03-26T14:29:07.503Z,3791.25
2018-03-26T14:30:07.487Z,2278.13
2018-03-26T14:31:07.475Z,3577.50
2018-03-26T14:32:07.470Z,3566.25
2018-03-26T14:33:07.467Z,3526.88
2018-03-26T14:34:07.459Z,2964.38
2018-03-26T14:35:07.493Z,3380.63
2018-03-26T14:36:07.430Z,3650.63
2018-03-26T14:37:07.419Z,3543.75
2018-03-26T14:38:07.417Z,2036.25
2018-03-26T14:39:07.403Z,3476.25
2018-03-26T14:40:07.394Z,2593.13
2018-03-26T14:41:07.385Z,2846.25
2018-03-26T14:42:07.377Z,3678.75
2018-03-26T14:43:07.382Z,3476.25
2018-03-26T14:44:07.357Z,3504.38
2018-03-26T14:45:07.359Z,3262.50
2018-03-26T14:46:07.350Z,3459.38
2018-03-26T14:47:07.332Z,3791.25
2018-03-26T14:48:07.330Z,3864.38
2018-03-26T14:49:07.323Z,3740.63
2018-03-26T14:50:07.305Z,3639.38
2018-03-26T14:51:07.300Z,3690.00
2018-03-26T14:52:07.298Z,3341.25
2018-03-26T14:53:07.281Z,3976.88
2018-03-26T14:54:07.266Z,3690.00
2018-03-26T14:55:07.270Z,3605.63
2018-03-26T14:56:07.262Z,3633.75
2018-03-26T14:57:07.248Z,3543.75
2018-03-26T14:58:07.232Z,3431.25
2018-03-26T14:59:07.224Z,3318.75
2018-03-26T15:00:07.224Z,3538.13
2018-03-26T15:01:07.218Z,3656.25
2018-03-26T15:02:07.205Z,3594.38
2018-03-26T15:03:07.189Z,3594.38
2018-03-26T15:04:07.182Z,3543.75
2018-03-26T15:05:07.180Z,3566.25
2018-03-26T15:06:07.175Z,3504.38
2018-03-26T15:07:07.154Z,3358.13
2018-03-26T15:08:07.146Z,3571.88
2018-03-26T15:09:07.138Z,3706.88
2018-03-26T15:10:07.133Z,3555.00
2018-03-26T15:11:07.133Z,3510.00
2018-03-26T15:12:07.123Z,3279.38
2018-03-26T15:13:07.110Z,3245.63
2018-03-26T15:14:07.093Z,3380.63
2018-03-26T15:15:07.084Z,1293.75
2018-03-26T15:16:07.083Z,3178.13
2018-03-26T15:17:07.101Z,961.88
2018-03-26T15:18:07.060Z,973.13
2018-03-26T15:19:07.067Z,2705.63
2018-03-26T15:20:07.075Z,3313.13
2018-03-26T15:21:07.035Z,3301.88
2018-03-26T15:22:07.024Z,3397.50
2018-03-26T15:23:07.015Z,3425.63
2018-03-26T15:24:07.000Z,3268.13
2018-03-26T15:25:07.003Z,3324.38
2018-03-26T15:26:06.979Z,3301.88
2018-03-26T15:27:06.969Z,3391.88
2018-03-26T15:28:06.970Z,3510.00
2018-03-26T15:29:06.954Z,3465.00
2018-03-26T15:30:06.940Z,3397.50
2018-03-26T15:31:06.941Z,3380.63
2018-03-26T15:32:06.922Z,3498.75
2018-03-26T15:33:06.924Z,3420.00
2018-03-26T15:34:06.901Z,3352.50
2018-03-26T15:35:06.905Z,3228.75
2018-03-26T15:36:06.892Z,3268.13
2018-03-26T15:37:06.876Z,3431.25
2018-03-26T15:38:06.865Z,3313.13
2018-03-26T15:39:06.863Z,3138.75
2018-03-26T15:40:06.842Z,3060.00
2018-03-26T15:41:06.833Z,3060.00
2018-03-26T15:42:06.830Z,2801.25
2018-03-26T15:43:06.818Z,2390.63
2018-03-26T15:44:06.809Z,2081.25
2018-03-26T15:45:06.810Z,1558.13
2018-03-26T15:46:06.798Z,2829.38
2018-03-26T15:47:06.790Z,3155.63
2018-03-26T15:48:06.768Z,3301.88
2018-03-26T15:49:06.755Z,3076.88
2018-03-26T15:50:06.743Z,2902.50
2018-03-26T15:51:06.731Z,2953.13
2018-03-26T15:52:06.727Z,3082.50
2018-03-26T15:53:06.712Z,3076.88
2018-03-26T15:54:06.743Z,2981.25
2018-03-26T15:55:06.706Z,2874.38
2018-03-26T15:56:06.689Z,2958.75
2018-03-26T15:57:06.678Z,2981.25
2018-03-26T15:58:06.662Z,2835.00
2018-03-26T15:59:06.647Z,2863.13
2018-03-26T16:00:06.638Z,2863.13
2018-03-26T16:01:06.624Z,2694.38
2018-03-26T16:02:06.614Z,2193.75
2018-03-26T16:03:06.601Z,1001.25
2018-03-26T16:04:06.602Z,742.50
2018-03-26T16:05:06.595Z,804.38
2018-03-26T16:06:06.565Z,810.00
2018-03-26T16:07:06.568Z,1113.75
2018-03-26T16:08:06.545Z,1276.88
2018-03-26T16:09:06.559Z,658.13
2018-03-26T16:10:06.530Z,860.63
2018-03-26T16:11:06.503Z,821.25
2018-03-26T16:12:06.488Z,725.63
2018-03-26T16:13:06.482Z,646.88
2018-03-26T16:14:06.459Z,663.75
2018-03-26T16:15:06.466Z,613.13
2018-03-26T16:16:06.431Z,590.63
2018-03-26T16:17:06.416Z,585.00
2018-03-26T16:18:06.408Z,573.75
2018-03-26T16:19:06.386Z,562.50
2018-03-26T16:20:06.363Z,545.63
2018-03-26T16:21:06.356Z,528.75
2018-03-26T16:22:06.347Z,506.25
2018-03-26T16:23:06.312Z,495.00
2018-03-26T16:24:06.294Z,478.13
2018-03-26T16:25:06.277Z,472.50
2018-03-26T16:26:06.271Z,472.50
2018-03-26T16:27:06.254Z,472.50
2018-03-26T16:28:06.222Z,478.13
2018-03-26T16:29:06.208Z,472.50
2018-03-26T16:30:06.188Z,472.50
2018-03-26T16:31:06.171Z,455.63
2018-03-26T16:32:06.166Z,438.75
2018-03-26T16:33:06.141Z,427.50
2018-03-26T16:34:06.110Z,416.25
2018-03-26T16:35:06.092Z,405.00
2018-03-26T16:36:06.092Z,405.00
2018-03-26T16:37:06.068Z,388.13
2018-03-26T16:38:06.039Z,365.63
2018-03-26T16:39:06.018Z,354.38
2018-03-26T16:40:06.004Z,337.50
2018-03-26T16:41:05.980Z,320.63
2018-03-26T16:42:05.972Z,309.38
2018-03-26T16:43:05.941Z,292.50
2018-03-26T16:44:05.923Z,286.88
2018-03-26T16:45:05.904Z,281.25
2018-03-26T16:46:05.901Z,281.25
2018-03-26T16:47:05.876Z,281.25
2018-03-26T16:48:05.842Z,281.25
2018-03-26T16:49:05.830Z,275.63
2018-03-26T16:50:05.821Z,270.00
2018-03-26T16:51:05.794Z,264.38
2018-03-26T16:52:05.777Z,258.75
2018-03-26T16:53:05.741Z,264.38
2018-03-26T16:54:05.728Z,258.75
2018-03-26T16:55:05.702Z,236.25
2018-03-26T16:56:05.682Z,225.00
2018-03-26T16:57:05.662Z,219.38
2018-03-26T16:58:05.652Z,219.38
2018-03-26T16:59:05.642Z,213.75
2018-03-26T17:00:05.616Z,213.75
2018-03-26T17:01:05.590Z,219.38
2018-03-26T17:02:05.559Z,219.38
2018-03-26T17:03:05.549Z,225.00
2018-03-26T17:04:05.517Z,225.00
2018-03-26T17:05:05.497Z,219.38
2018-03-26T17:06:05.519Z,219.38
2018-03-26T17:07:05.468Z,258.75
2018-03-26T17:08:05.439Z,270.00
2018-03-26T17:09:05.414Z,230.63
2018-03-26T17:10:05.390Z,213.75
2018-03-26T17:11:05.383Z,208.13
2018-03-26T17:12:05.355Z,202.50
2018-03-26T17:13:05.338Z,196.88
2018-03-26T17:14:05.306Z,185.63
2018-03-26T17:15:05.289Z,180.00
2018-03-26T17:16:05.268Z,174.38
2018-03-26T17:17:05.247Z,174.38
2018-03-26T17:18:05.240Z,202.50
2018-03-26T17:19:05.232Z,180.00
2018-03-26T17:20:05.181Z,163.13
2018-03-26T17:21:05.166Z,151.88
2018-03-26T17:22:05.168Z,140.63
2018-03-26T17:23:05.117Z,135.00
2018-03-26T17:24:05.127Z,135.00
2018-03-26T17:25:05.071Z,129.38
2018-03-26T17:26:05.064Z,123.75
2018-03-26T17:27:05.042Z,123.75
2018-03-26T17:28:05.020Z,118.13
2018-03-26T17:29:04.988Z,106.88
2018-03-26T17:30:04.972Z,101.25
2018-03-26T17:31:04.944Z,95.63
2018-03-26T17:32:04.925Z,90.00
2018-03-26T17:33:04.911Z,84.38
2018-03-26T17:34:04.879Z,84.38
2018-03-26T17:35:04.867Z,78.75
2018-03-26T17:36:04.837Z,73.13
2018-03-26T17:37:04.811Z,67.50
2018-03-26T17:38:04.790Z,61.88
2018-03-26T17:39:04.788Z,56.25
2018-03-26T17:40:04.748Z,50.63
2018-03-26T17:41:04.735Z,45.00
2018-03-26T17:42:04.740Z,39.38
2018-03-26T17:43:04.686Z,39.38
2018-03-26T17:44:04.671Z,33.75
2018-03-26T17:45:04.641Z,28.13
2018-03-26T17:46:04.622Z,22.50
2018-03-26T17:47:04.602Z,22.50
2018-03-26T17:48:04.577Z,22.50
2018-03-26T17:49:04.545Z,16.88
2018-03-26T17:50:04.539Z,16.88
2018-03-26T17:51:04.500Z,16.88
2018-03-26T17:52:04.490Z,11.25
2018-03-26T17:53:04.467Z,11.25
2018-03-26T17:54:04.431Z,11.25
2018-03-26T17:55:04.413Z,11.25
2018-03-26T17:56:04.397Z,11.25
2018-03-26T17:57:04.374Z,5.63
2018-03-26T17:58:04.338Z,5.63
2018-03-26T17:59:04.317Z,5.63
2018-03-26T18:00:04.300Z,5.63
2018-03-26T18:01:04.281Z,5.63
2018-03-26T18:02:04.264Z,5.63
2018-03-26T18:03:04.231Z,0.00
2018-03-26T18:04:04.201Z,0.00
2018-03-26T18:05:04.182Z,0.00
2018-03-26T18:06:04.165Z,0.00
2018-03-26T18:07:04.143Z,0.00
2018-03-26T18:08:04.120Z,0.00
2018-03-26T18:09:04.100Z,0.00
2018-03-26T18:10:04.069Z,0.00
2018-03-26T18:11:04.040Z,0.00
2018-03-26T18:12:04.028Z,0.00
2018-03-26T18:13:04.002Z,0.00
2018-03-26T18:14:03.977Z,0.00
2018-03-26T18:15:03.951Z,0.00
2018-03-26T18:16:03.923Z,0.00
2018-03-26T18:17:03.900Z,0.00
2018-03-26T18:18:03.874Z,0.00
2018-03-26T18:19:03.852Z,0.00
2018-03-26T18:20:03.833Z,0.00
2018-03-26T18:21:03.805Z,0.00
2018-03-26T18:22:03.785Z,0.00
2018-03-26T18:23:03.758Z,0.00
2018-03-26T18:24:03.748Z,0.00
2018-03-26T18:25:03.714Z,0.00
2018-03-26T18:26:03.692Z,0.00
2018-03-26T18:27:03.682Z,0.00
2018-03-26T18:28:03.644Z,0.00
2018-03-26T18:29:03.629Z,0.00
2018-03-26T18:30:03.596Z,0.00
2018-03-26T18:31:03.594Z,0.00
2018-03-26T18:32:03.560Z,0.00
2018-03-26T18:33:03.525Z,0.00
2018-03-26T18:34:03.516Z,0.00
2018-03-26T18:35:03.483Z,0.00
2018-03-26T18:36:03.454Z,0.00
2018-03-26T18:37:03.442Z,0.00
2018-03-26T18:38:03.408Z,0.00
2018-03-26T18:39:03.394Z,0.00
2018-03-26T18:40:03.360Z,0.00
2018-03-26T18:41:03.349Z,0.00
2018-03-26T18:42:03.329Z,0.00
2018-03-26T18:43:03.302Z,0.00
2018-03-26T18:44:03.268Z,0.00
2018-03-26T18:45:03.244Z,0.00
2018-03-26T18:46:03.217Z,0.00
2018-03-26T18:47:03.205Z,0.00
2018-03-26T18:48:03.183Z,0.00
2018-03-26T18:49:03.158Z,0.00
2018-03-26T18:50:03.139Z,0.00
2018-03-26T18:51:03.104Z,0.00
2018-03-26T18:52:03.082Z,0.00
2018-03-26T18:53:03.051Z,0.00
2018-03-26T18:54:03.043Z,0.00
2018-03-26T18:55:03.006Z,0.00
2018-03-26T18:56:02.995Z,0.00
2018-03-26T18:57:03.048Z,0.00
2018-03-26T18:58:02.932Z,0.00
2018-03-26T18:59:02.935Z,0.00
2018-03-26T19:00:02.928Z,0.00
2018-03-26T19:01:02.874Z,0.00
2018-03-26T19:02:02.843Z,0.00
2018-03-26T19:03:02.828Z,0.00
2018-03-26T19:04:02.790Z,0.00
2018-03-26T19:05:02.786Z,0.00
2018-03-26T19:06:02.758Z,0.00
2018-03-26T19:07:02.730Z,0.00
2018-03-26T19:08:02.696Z,0.00
2018-03-26T19:09:02.677Z,0.00
2018-03-26T19:10:02.660Z,0.00
2018-03-26T19:11:02.638Z,0.00
2018-03-26T19:12:02.601Z,0.00
2018-03-26T19:13:02.578Z,0.00
2018-03-26T19:14:02.554Z,0.00
2018-03-26T19:15:02.529Z,0.00
2018-03-26T19:16:02.518Z,0.00
2018-03-26T19:17:02.492Z,0.00
2018-03-26T19:18:02.454Z,0.00
2018-03-26T19:19:02.432Z,0.00
2018-03-26T19:20:02.416Z,0.00
2018-03-26T19:21:02.396Z,0.00
2018-03-26T19:22:02.364Z,0.00
2018-03-26T19:23:02.336Z,0.00
2018-03-26T19:24:02.322Z,0.00
2018-03-26T19:25:02.286Z,0.00
2018-03-26T19:26:02.277Z,0.00
2018-03-26T19:27:02.259Z,0.00
2018-03-26T19:28:02.216Z,0.00
2018-03-26T19:29:02.202Z,0.00
2018-03-26T19:30:02.180Z,0.00
2018-03-26T19:31:02.144Z,0.00
2018-03-26T19:32:02.119Z,0.00
2018-03-26T19:33:02.106Z,0.00
2018-03-26T19:34:02.071Z,0.00
2018-03-26T19:35:02.092Z,0.00
2018-03-26T19:36:02.024Z,0.00
2018-03-26T19:37:02.011Z,0.00
2018-03-26T19:38:01.987Z,0.00
2018-03-26T19:39:01.963Z,0.00
2018-03-26T19:40:01.928Z,0.00
2018-03-26T19:41:01.908Z,0.00
2018-03-26T19:42:01.890Z,0.00
2018-03-26T19:43:01.870Z,0.00
2018-03-26T19:44:01.832Z,0.00
2018-03-26T19:45:01.817Z,0.00
2018-03-26T19:46:01.780Z,0.00
2018-03-26T19:47:01.762Z,0.00
2018-03-26T19:48:01.736Z,0.00
2018-03-26T19:49:01.721Z,0.00
2018-03-26T19:50:01.688Z,0.00
2018-03-26T19:51:01.666Z,0.00
2018-03-26T19:52:01.639Z,0.00
2018-03-26T19:53:01.612Z,0.00
2018-03-26T19:54:01.610Z,0.00
2018-03-26T19:55:01.581Z,0.00
2018-03-26T19:56:01.547Z,0.00
2018-03-26T19:57:01.534Z,0.00
2018-03-26T19:58:01.513Z,0.00
2018-03-26T19:59:01.472Z,0.00
2018-03-26T20:00:01.468Z,0.00
2018-03-26T20:01:01.424Z,0.00
2018-03-26T20:02:01.438Z,0.00
2018-03-26T20:03:01.404Z,0.00
2018-03-26T20:04:01.351Z,0.00
2018-03-26T20:05:01.337Z,0.00
2018-03-26T20:06:01.303Z,0.00
2018-03-26T20:07:01.276Z,0.00
2018-03-26T20:08:01.255Z,0.00
2018-03-26T20:09:01.229Z,0.00
2018-03-26T20:10:01.207Z,0.00
2018-03-26T20:11:01.185Z,0.00
2018-03-26T20:12:01.168Z,0.00
2018-03-26T20:13:01.143Z,0.00
2018-03-26T20:14:01.108Z,0.00
2018-03-26T20:15:01.095Z,0.00
2018-03-26T20:16:01.071Z,0.00
2018-03-26T20:17:01.036Z,0.00
2018-03-26T20:18:01.013Z,0.00
2018-03-26T20:19:00.989Z,0.00
2018-03-26T20:20:00.978Z,0.00
2018-03-26T20:21:00.938Z,0.00
2018-03-26T20:22:00.928Z,0.00
2018-03-26T20:23:00.915Z,0.00
2018-03-26T20:24:00.882Z,0.00
2018-03-26T20:25:00.852Z,0.00
2018-03-26T20:26:00.819Z,0.00
2018-03-26T20:27:00.792Z,0.00